createdAt,value
2019-03-25T00:01:00.647Z,4.87
2019-03-25T00:03:29.195Z,3.93
2019-03-25T00:05:57.644Z,4.30
2019-03-25T00:08:26.093Z,3.77
2019-03-25T00:10:54.578Z,3.97
2019-03-25T00:13:23.027Z,4.00
2019-03-25T00:15:51.483Z,4.20
2019-03-25T00:18:19.970Z,5.20
2019-03-25T00:20:48.421Z,4.03
2019-03-25T00:23:16.897Z,4.47
2019-03-25T00:25:45.658Z,4.10
2019-03-25T00:28:14.107Z,4.27
2019-03-25T00:30:43.030Z,4.37
2019-03-25T00:33:11.898Z,4.87
2019-03-25T00:35:40.347Z,5.10
2019-03-25T00:38:08.817Z,4.80
2019-03-25T00:40:37.262Z,4.50
2019-03-25T00:43:05.716Z,5.50
2019-03-25T00:45:34.262Z,4.90
2019-03-25T00:48:03.095Z,4.67
2019-03-25T00:50:31.643Z,4.90
2019-03-25T00:53:00.475Z,4.60
2019-03-25T00:55:29.376Z,4.57
2019-03-25T00:57:57.829Z,4.90
2019-03-25T01:00:26.261Z,5.53
2019-03-25T01:02:54.764Z,5.27
2019-03-25T01:05:23.238Z,4.93
2019-03-25T01:07:51.706Z,4.53
2019-03-25T01:10:20.161Z,4.63
2019-03-25T01:12:48.940Z,5.17
2019-03-25T01:15:17.718Z,5.47
2019-03-25T01:17:46.174Z,4.47
2019-03-25T01:20:16.345Z,5.30
2019-03-25T01:22:45.108Z,5.63
2019-03-25T01:25:13.578Z,4.70
2019-03-25T01:27:42.054Z,5.40
2019-03-25T01:30:11.407Z,6.00
2019-03-25T01:32:39.928Z,4.77
2019-03-25T01:35:09.055Z,5.23
2019-03-25T01:37:37.529Z,5.47
2019-03-25T01:40:07.953Z,4.93
2019-03-25T01:42:36.366Z,5.17
2019-03-25T01:45:06.375Z,5.00
2019-03-25T01:47:34.882Z,4.70
2019-03-25T01:50:04.463Z,4.77
2019-03-25T01:52:32.977Z,4.57
2019-03-25T01:55:12.727Z,4.80
2019-03-25T01:57:32.054Z,4.50
2019-03-25T02:00:00.526Z,4.40
2019-03-25T02:02:28.978Z,4.83
2019-03-25T02:04:57.796Z,5.70
2019-03-25T02:07:26.315Z,5.40
2019-03-25T02:09:55.154Z,5.10
2019-03-25T02:12:23.901Z,5.67
2019-03-25T02:14:52.353Z,6.40
2019-03-25T02:17:20.798Z,5.10
2019-03-25T02:19:49.589Z,4.50
2019-03-25T02:22:18.041Z,5.33
2019-03-25T02:24:46.444Z,5.00
2019-03-25T02:27:15.267Z,6.03
2019-03-25T02:29:43.789Z,6.10
2019-03-25T02:32:12.636Z,6.47
2019-03-25T02:34:41.408Z,6.53
2019-03-25T02:37:10.240Z,6.63
2019-03-25T02:39:38.683Z,5.63
2019-03-25T02:42:07.460Z,6.20
2019-03-25T02:44:35.931Z,6.00
2019-03-25T02:47:04.346Z,6.40
2019-03-25T02:49:32.859Z,6.17
2019-03-25T02:52:01.309Z,6.27
2019-03-25T02:54:29.837Z,5.77
2019-03-25T02:56:58.312Z,5.53
2019-03-25T02:59:26.834Z,5.67
2019-03-25T03:01:55.280Z,5.57
2019-03-25T03:04:23.758Z,5.90
2019-03-25T03:06:52.575Z,5.67
2019-03-25T03:09:21.028Z,6.60
2019-03-25T03:11:49.575Z,7.43
2019-03-25T03:14:18.043Z,6.80
2019-03-25T03:16:46.487Z,7.77
2019-03-25T03:19:15.308Z,7.17
2019-03-25T03:21:43.753Z,7.27
2019-03-25T03:24:12.202Z,7.13
2019-03-25T03:26:41.043Z,5.90
2019-03-25T03:29:09.517Z,6.30
2019-03-25T03:31:38.015Z,6.70
2019-03-25T03:34:06.963Z,5.80
2019-03-25T03:36:35.510Z,6.87
2019-03-25T03:39:04.906Z,8.20
2019-03-25T03:41:33.427Z,7.10
2019-03-25T03:44:01.920Z,7.13
2019-03-25T03:46:30.734Z,7.67
2019-03-25T03:48:59.217Z,6.73
2019-03-25T03:51:27.734Z,7.27
2019-03-25T03:53:56.281Z,6.77
2019-03-25T03:56:24.978Z,6.33
2019-03-25T03:58:53.990Z,7.03
2019-03-25T04:01:22.442Z,7.03
2019-03-25T04:03:50.914Z,7.83
2019-03-25T04:06:19.363Z,7.83
2019-03-25T04:08:48.086Z,7.20
2019-03-25T04:11:16.639Z,7.20
2019-03-25T04:13:45.091Z,7.47
2019-03-25T04:16:13.886Z,7.93
2019-03-25T04:18:42.349Z,8.37
2019-03-25T04:21:10.832Z,7.70
2019-03-25T04:23:39.378Z,9.03
2019-03-25T04:26:07.871Z,8.13
2019-03-25T04:28:36.669Z,7.57
2019-03-25T04:31:05.122Z,8.17
2019-03-25T04:33:33.542Z,7.93
2019-03-25T04:36:02.399Z,8.00
2019-03-25T04:38:30.874Z,7.70
2019-03-25T04:40:59.668Z,8.00
2019-03-25T04:43:28.124Z,7.63
2019-03-25T04:45:56.938Z,7.97
2019-03-25T04:48:25.387Z,8.17
2019-03-25T04:50:53.895Z,7.03
2019-03-25T04:53:22.339Z,8.33
2019-03-25T04:55:50.797Z,7.80
2019-03-25T04:58:19.290Z,7.87
2019-03-25T05:00:47.744Z,7.43
2019-03-25T05:03:16.199Z,7.63
2019-03-25T05:05:44.670Z,7.67
2019-03-25T05:08:13.492Z,7.90
2019-03-25T05:10:41.975Z,7.90
2019-03-25T05:13:10.489Z,8.43
2019-03-25T05:15:39.326Z,7.47
2019-03-25T05:18:07.805Z,7.13
2019-03-25T05:20:36.280Z,6.67
2019-03-25T05:23:05.204Z,7.63
2019-03-25T05:25:33.673Z,7.93
2019-03-25T05:28:02.126Z,8.10
2019-03-25T05:30:30.670Z,7.37
2019-03-25T05:32:59.211Z,8.20
2019-03-25T05:35:27.697Z,7.70
2019-03-25T05:37:56.581Z,8.03
2019-03-25T05:40:25.487Z,8.00
2019-03-25T05:42:54.033Z,8.40
2019-03-25T05:45:22.473Z,8.67
2019-03-25T05:47:50.923Z,8.40
2019-03-25T05:50:19.406Z,7.77
2019-03-25T05:52:48.289Z,9.03
2019-03-25T05:55:16.745Z,8.27
2019-03-25T05:57:45.546Z,8.17
2019-03-25T06:00:15.037Z,8.83
2019-03-25T06:02:43.445Z,8.50
2019-03-25T06:05:12.524Z,8.90
2019-03-25T06:07:40.978Z,8.73
2019-03-25T06:10:09.906Z,8.57
2019-03-25T06:12:38.383Z,8.57
2019-03-25T06:15:08.483Z,9.03
2019-03-25T06:17:37.226Z,8.27
2019-03-25T06:20:07.469Z,8.53
2019-03-25T06:22:36.307Z,8.67
2019-03-25T06:25:07.071Z,8.80
2019-03-25T06:27:35.842Z,8.70
2019-03-25T06:30:09.411Z,7.87
2019-03-25T06:32:37.920Z,8.53
2019-03-25T06:35:08.921Z,7.40
2019-03-25T06:37:37.765Z,8.47
2019-03-25T06:40:08.364Z,7.97
2019-03-25T06:42:36.812Z,8.53
2019-03-25T06:45:08.286Z,8.87
2019-03-25T06:47:36.761Z,7.77
2019-03-25T06:50:08.906Z,8.23
2019-03-25T06:52:37.379Z,7.53
2019-03-25T06:55:07.322Z,7.13
2019-03-25T06:57:38.437Z,7.47
2019-03-25T07:00:08.504Z,7.83
2019-03-25T07:02:37.296Z,7.23
2019-03-25T07:05:07.478Z,8.20
2019-03-25T07:07:35.999Z,7.93
2019-03-25T07:10:05.993Z,8.80
2019-03-25T07:12:34.506Z,7.47
2019-03-25T07:15:03.005Z,7.83
2019-03-25T07:17:31.767Z,7.70
2019-03-25T07:20:00.581Z,8.07
2019-03-25T07:22:29.057Z,7.70
2019-03-25T07:24:57.511Z,7.90
2019-03-25T07:27:36.043Z,8.13
2019-03-25T07:29:56.544Z,7.63
2019-03-25T07:32:25.307Z,8.07
2019-03-25T07:34:53.767Z,8.03
2019-03-25T07:37:23.665Z,7.87
2019-03-25T07:39:52.697Z,7.93
2019-03-25T07:42:21.160Z,7.07
2019-03-25T07:44:49.590Z,6.57
2019-03-25T07:47:18.079Z,7.10
2019-03-25T07:49:46.536Z,7.63
2019-03-25T07:52:15.047Z,6.90
2019-03-25T07:54:43.901Z,7.00
2019-03-25T07:57:12.397Z,6.90
2019-03-25T07:59:40.920Z,6.20
2019-03-25T08:02:09.458Z,6.87
2019-03-25T08:04:38.821Z,6.17
2019-03-25T08:07:07.485Z,6.57
2019-03-25T08:09:35.989Z,6.57
2019-03-25T08:12:04.486Z,7.10
2019-03-25T08:14:33.305Z,6.50
2019-03-25T08:17:02.201Z,7.73
2019-03-25T08:19:30.678Z,7.17
2019-03-25T08:21:59.151Z,6.93
2019-03-25T08:24:27.683Z,6.50
2019-03-25T08:26:56.506Z,7.23
2019-03-25T08:29:24.949Z,6.80
2019-03-25T08:31:53.438Z,7.30
2019-03-25T08:34:22.250Z,8.10
2019-03-25T08:36:50.701Z,8.00
2019-03-25T08:39:19.175Z,8.03
2019-03-25T08:41:48.003Z,8.00
2019-03-25T08:44:16.793Z,9.23
2019-03-25T08:46:45.585Z,8.13
2019-03-25T08:49:14.097Z,8.70
2019-03-25T08:51:42.553Z,8.90
2019-03-25T08:54:11.021Z,8.67
2019-03-25T08:56:39.807Z,9.27
2019-03-25T08:59:08.274Z,9.57
2019-03-25T09:01:36.729Z,10.57
2019-03-25T09:04:05.551Z,9.90
2019-03-25T09:06:34.028Z,10.43
2019-03-25T09:09:02.569Z,10.73
2019-03-25T09:11:31.023Z,10.30
2019-03-25T09:13:59.790Z,10.20
2019-03-25T09:16:28.323Z,10.07
2019-03-25T09:18:57.182Z,10.83
2019-03-25T09:21:25.686Z,12.00
2019-03-25T09:23:54.237Z,10.87
2019-03-25T09:26:23.119Z,11.57
2019-03-25T09:28:54.878Z,11.10
2019-03-25T09:31:23.327Z,9.73
2019-03-25T09:33:51.805Z,11.33
2019-03-25T09:36:20.669Z,12.07
2019-03-25T09:38:49.666Z,12.60
2019-03-25T09:41:18.627Z,12.70
2019-03-25T09:43:47.502Z,12.80
2019-03-25T09:46:16.117Z,12.53
2019-03-25T09:48:44.634Z,13.27
2019-03-25T09:51:13.266Z,13.40
2019-03-25T09:53:41.917Z,12.83
2019-03-25T09:56:11.760Z,14.27
2019-03-25T09:58:40.662Z,14.93
2019-03-25T10:01:09.176Z,13.70
2019-03-25T10:03:37.689Z,14.27
2019-03-25T10:06:06.344Z,13.97
2019-03-25T10:08:34.789Z,13.60
2019-03-25T10:11:03.335Z,13.27
2019-03-25T10:13:32.182Z,14.43
2019-03-25T10:16:00.767Z,13.90
2019-03-25T10:18:29.213Z,14.13
2019-03-25T10:20:57.762Z,13.53
2019-03-25T10:23:26.281Z,13.90
2019-03-25T10:25:54.801Z,13.30
2019-03-25T10:28:23.282Z,14.10
2019-03-25T10:30:51.745Z,14.17
2019-03-25T10:33:20.358Z,13.90
2019-03-25T10:35:49.250Z,13.10
2019-03-25T10:38:19.836Z,14.07
2019-03-25T10:40:47.973Z,13.30
2019-03-25T10:43:16.514Z,14.27
2019-03-25T10:45:45.070Z,12.67
2019-03-25T10:48:13.661Z,12.27
2019-03-25T10:50:42.213Z,13.40
2019-03-25T10:53:10.672Z,12.27
2019-03-25T10:55:39.192Z,12.17
2019-03-25T10:58:07.772Z,14.30
2019-03-25T11:00:36.683Z,13.47
2019-03-25T11:03:05.205Z,12.20
2019-03-25T11:05:34.041Z,11.83
2019-03-25T11:08:02.545Z,11.83
2019-03-25T11:10:31.107Z,12.77
2019-03-25T11:12:59.595Z,13.43
2019-03-25T11:15:28.196Z,13.47
2019-03-25T11:17:57.081Z,10.60
2019-03-25T11:20:25.571Z,10.37
2019-03-25T11:22:54.094Z,10.30
2019-03-25T11:25:22.901Z,9.73
2019-03-25T11:27:54.509Z,10.67
2019-03-25T11:30:27.375Z,10.23
2019-03-25T11:32:55.850Z,14.50
2019-03-25T11:35:24.305Z,15.20
2019-03-25T11:37:52.783Z,16.67
2019-03-25T11:40:21.574Z,14.70
2019-03-25T11:42:50.095Z,15.50
2019-03-25T11:45:18.712Z,14.83
2019-03-25T11:47:47.173Z,15.77
2019-03-25T11:50:15.676Z,14.40
2019-03-25T11:52:44.509Z,12.77
2019-03-25T11:55:13.176Z,14.13
2019-03-25T11:57:41.645Z,14.57
2019-03-25T12:00:10.365Z,16.00
2019-03-25T12:02:38.821Z,14.67
2019-03-25T12:05:07.635Z,14.60
2019-03-25T12:07:36.186Z,12.33
2019-03-25T12:10:06.782Z,13.30
2019-03-25T12:12:35.235Z,12.37
2019-03-25T12:15:05.253Z,11.80
2019-03-25T12:17:33.708Z,11.73
2019-03-25T12:20:02.191Z,10.30
2019-03-25T12:22:30.982Z,11.97
2019-03-25T12:24:59.440Z,11.80
2019-03-25T12:27:27.959Z,10.93
2019-03-25T12:29:56.462Z,11.93
2019-03-25T12:32:24.921Z,10.90
2019-03-25T12:34:53.413Z,10.90
2019-03-25T12:37:21.867Z,11.23
2019-03-25T12:39:50.317Z,9.97
2019-03-25T12:42:19.130Z,10.17
2019-03-25T12:44:47.917Z,10.37
2019-03-25T12:47:16.721Z,9.40
2019-03-25T12:49:45.194Z,10.30
2019-03-25T12:52:13.656Z,9.43
2019-03-25T12:54:42.184Z,9.80
2019-03-25T12:57:10.672Z,10.13
2019-03-25T12:59:41.552Z,9.10
2019-03-25T13:02:09.314Z,9.60
2019-03-25T13:04:37.846Z,9.97
2019-03-25T13:07:06.322Z,10.93
2019-03-25T13:09:34.802Z,9.03
2019-03-25T13:12:03.441Z,9.60
2019-03-25T13:14:31.917Z,9.60
2019-03-25T13:17:00.371Z,8.87
2019-03-25T13:19:29.217Z,8.80
2019-03-25T13:21:57.681Z,9.87
2019-03-25T13:24:26.144Z,8.97
2019-03-25T13:26:54.631Z,8.00
2019-03-25T13:29:23.145Z,8.13
2019-03-25T13:31:51.934Z,7.70
2019-03-25T13:34:20.735Z,9.00
2019-03-25T13:36:49.278Z,7.93
2019-03-25T13:39:17.733Z,8.23
2019-03-25T13:41:46.596Z,8.30
2019-03-25T13:44:15.079Z,7.93
2019-03-25T13:46:43.840Z,8.53
2019-03-25T13:49:12.296Z,8.80
2019-03-25T13:51:40.838Z,8.93
2019-03-25T13:54:09.287Z,9.43
2019-03-25T13:56:37.741Z,8.13
2019-03-25T13:59:06.558Z,8.97
2019-03-25T14:01:35.343Z,8.87
2019-03-25T14:04:03.786Z,7.90
2019-03-25T14:06:32.267Z,8.00
2019-03-25T14:09:00.771Z,7.73
2019-03-25T14:11:29.398Z,9.33
2019-03-25T14:14:00.175Z,8.40
2019-03-25T14:16:28.129Z,8.10
2019-03-25T14:18:56.726Z,8.67
2019-03-25T14:21:25.213Z,8.23
2019-03-25T14:23:53.667Z,8.80
2019-03-25T14:26:22.109Z,8.43
2019-03-25T14:28:50.588Z,8.17
2019-03-25T14:31:19.388Z,8.03
2019-03-25T14:33:47.868Z,7.63
2019-03-25T14:36:16.320Z,7.03
2019-03-25T14:38:44.774Z,6.90
2019-03-25T14:41:13.250Z,7.90
2019-03-25T14:43:41.998Z,9.80
2019-03-25T14:46:10.450Z,8.13
2019-03-25T14:48:38.925Z,7.87
2019-03-25T14:51:07.379Z,7.77
2019-03-25T14:53:44.715Z,7.83
2019-03-25T14:56:06.029Z,8.33
2019-03-25T14:58:34.485Z,8.90
2019-03-25T15:01:03.037Z,8.73
2019-03-25T15:03:31.486Z,9.10
2019-03-25T15:05:59.938Z,9.03
2019-03-25T15:08:28.413Z,8.73
2019-03-25T15:10:56.823Z,9.40
2019-03-25T15:13:25.334Z,8.80
2019-03-25T15:15:53.795Z,9.33
2019-03-25T15:18:22.319Z,9.13
2019-03-25T15:20:51.143Z,8.70
2019-03-25T15:23:19.927Z,7.63
2019-03-25T15:25:48.400Z,8.53
2019-03-25T15:28:17.301Z,8.40
2019-03-25T15:30:46.106Z,7.40
2019-03-25T15:33:14.586Z,7.53
2019-03-25T15:35:43.378Z,7.90
2019-03-25T15:38:11.822Z,6.23
2019-03-25T15:40:40.297Z,6.10
2019-03-25T15:43:08.755Z,5.67
2019-03-25T15:45:37.211Z,5.60
2019-03-25T15:48:05.860Z,5.70
2019-03-25T15:50:34.364Z,7.87
2019-03-25T15:53:02.955Z,4.67
2019-03-25T15:55:31.750Z,4.33
2019-03-25T15:58:00.210Z,6.77
2019-03-25T16:00:28.800Z,4.97
2019-03-25T16:02:57.274Z,3.47
2019-03-25T16:05:26.149Z,3.13
2019-03-25T16:07:54.665Z,3.10
2019-03-25T16:10:23.626Z,4.13
2019-03-25T16:12:52.073Z,3.60
2019-03-25T16:15:41.782Z,4.17
2019-03-25T16:18:12.143Z,2.83
2019-03-25T16:20:40.612Z,2.57
2019-03-25T16:23:09.053Z,2.00
2019-03-25T16:25:37.500Z,2.10
2019-03-25T16:28:06.117Z,2.47
2019-03-25T16:30:34.645Z,2.37
2019-03-25T16:33:03.125Z,1.90
2019-03-25T16:35:31.637Z,2.03
2019-03-25T16:38:00.116Z,2.07
2019-03-25T16:40:28.955Z,1.90
2019-03-25T16:42:57.389Z,1.30
2019-03-25T16:45:26.142Z,1.50
2019-03-25T16:47:54.614Z,1.47
2019-03-25T16:50:23.525Z,1.63
2019-03-25T16:52:52.277Z,1.40
2019-03-25T16:55:20.752Z,1.80
2019-03-25T16:57:49.554Z,1.50
2019-03-25T17:00:26.927Z,1.80
2019-03-25T17:02:48.554Z,2.00
2019-03-25T17:05:17.008Z,1.40
2019-03-25T17:07:45.831Z,1.80
2019-03-25T17:10:14.341Z,1.50
2019-03-25T17:12:42.862Z,1.63
2019-03-25T17:15:11.871Z,1.37
2019-03-25T17:17:40.386Z,1.60
2019-03-25T17:20:09.465Z,2.20
2019-03-25T17:22:37.919Z,1.90
2019-03-25T17:25:07.650Z,2.07
2019-03-25T17:27:36.439Z,1.80
2019-03-25T17:30:13.983Z,1.80
2019-03-25T17:32:42.521Z,1.80
2019-03-25T17:35:11.926Z,2.20
2019-03-25T17:37:40.713Z,1.70
2019-03-25T17:40:10.034Z,1.97
2019-03-25T17:42:38.585Z,1.90
2019-03-25T17:45:08.565Z,1.70
2019-03-25T17:47:37.105Z,1.70
2019-03-25T17:50:08.394Z,2.00
2019-03-25T17:52:36.872Z,1.70
2019-03-25T17:55:07.325Z,1.67
2019-03-25T17:57:35.777Z,1.90
2019-03-25T18:00:07.699Z,1.30
2019-03-25T18:02:36.477Z,1.80
2019-03-25T18:05:07.570Z,1.80
2019-03-25T18:07:36.008Z,1.67
2019-03-25T18:10:06.973Z,1.60
2019-03-25T18:12:39.200Z,1.57
2019-03-25T18:15:09.245Z,1.60
2019-03-25T18:17:37.918Z,1.70
2019-03-25T18:20:18.190Z,1.50
2019-03-25T18:22:39.934Z,1.40
2019-03-25T18:25:09.290Z,1.60
2019-03-25T18:27:37.729Z,1.17
2019-03-25T18:30:08.213Z,1.23
2019-03-25T18:32:37.014Z,1.90
2019-03-25T18:35:06.519Z,1.63
2019-03-25T18:37:34.973Z,1.50
2019-03-25T18:40:04.694Z,2.17
2019-03-25T18:42:33.583Z,1.70
2019-03-25T18:45:02.064Z,2.00
2019-03-25T18:47:30.582Z,1.53
2019-03-25T18:49:59.105Z,1.40
2019-03-25T18:52:27.691Z,1.80
2019-03-25T18:54:56.233Z,1.60
2019-03-25T18:57:24.997Z,1.67
2019-03-25T18:59:53.439Z,1.50
2019-03-25T19:02:21.902Z,1.50
2019-03-25T19:04:50.390Z,1.90
2019-03-25T19:07:18.930Z,1.60
2019-03-25T19:09:47.760Z,1.83
2019-03-25T19:12:16.289Z,1.73
2019-03-25T19:14:44.843Z,1.70
2019-03-25T19:17:13.669Z,1.37
2019-03-25T19:19:42.171Z,1.40
2019-03-25T19:22:12.717Z,1.90
2019-03-25T19:24:41.250Z,1.50
2019-03-25T19:27:09.756Z,2.30
2019-03-25T19:29:38.643Z,1.33
2019-03-25T19:32:07.323Z,1.87
2019-03-25T19:34:35.924Z,1.37
2019-03-25T19:37:04.482Z,1.67
2019-03-25T19:39:33.193Z,1.60
2019-03-25T19:42:01.681Z,1.47
2019-03-25T19:44:30.116Z,1.53
2019-03-25T19:46:58.900Z,2.40
2019-03-25T19:49:27.857Z,2.07
2019-03-25T19:51:56.695Z,1.40
2019-03-25T19:54:25.232Z,2.27
2019-03-25T19:56:53.791Z,2.77
2019-03-25T19:59:22.287Z,1.83
2019-03-25T20:01:50.855Z,1.33
2019-03-25T20:04:19.371Z,1.57
2019-03-25T20:06:47.858Z,1.60
2019-03-25T20:09:16.353Z,1.77
2019-03-25T20:11:44.859Z,1.70
2019-03-25T20:14:13.367Z,1.53
2019-03-25T20:16:41.841Z,1.90
2019-03-25T20:19:10.406Z,1.27
2019-03-25T20:21:38.882Z,1.20
2019-03-25T20:24:07.346Z,1.10
2019-03-25T20:26:35.826Z,1.40
2019-03-25T20:29:06.451Z,1.33
2019-03-25T20:31:34.512Z,1.47
2019-03-25T20:34:10.749Z,1.20
2019-03-25T20:36:33.287Z,0.97
2019-03-25T20:39:01.810Z,2.07
2019-03-25T20:41:30.341Z,1.10
2019-03-25T20:43:58.925Z,1.20
2019-03-25T20:46:27.476Z,1.20
2019-03-25T20:48:56.246Z,1.23
2019-03-25T20:51:25.094Z,1.23
2019-03-25T20:53:53.557Z,1.13
2019-03-25T20:56:22.053Z,1.27
2019-03-25T20:58:50.586Z,1.23
2019-03-25T21:01:19.109Z,1.57
2019-03-25T21:03:48.127Z,1.60
2019-03-25T21:06:16.689Z,1.57
2019-03-25T21:08:45.553Z,1.37
2019-03-25T21:11:14.027Z,1.47
2019-03-25T21:13:42.493Z,1.60
2019-03-25T21:16:10.989Z,1.40
2019-03-25T21:18:40.006Z,1.50
2019-03-25T21:21:08.522Z,1.37
2019-03-25T21:23:37.067Z,1.40
2019-03-25T21:26:05.945Z,1.43
2019-03-25T21:28:34.448Z,1.30
2019-03-25T21:31:02.943Z,1.97
2019-03-25T21:33:31.441Z,1.50
2019-03-25T21:35:59.986Z,1.43
2019-03-25T21:38:28.438Z,1.40
2019-03-25T21:40:56.955Z,1.40
2019-03-25T21:43:25.833Z,1.30
2019-03-25T21:45:54.324Z,1.60
2019-03-25T21:48:22.823Z,1.67
2019-03-25T21:50:51.665Z,1.60
2019-03-25T21:53:20.180Z,1.70
2019-03-25T21:55:48.685Z,1.33
2019-03-25T21:58:17.270Z,1.37
2019-03-25T22:00:45.727Z,1.27
2019-03-25T22:03:14.193Z,1.77
2019-03-25T22:05:42.950Z,1.73
2019-03-25T22:08:11.738Z,1.37
2019-03-25T22:10:42.840Z,1.70
2019-03-25T22:13:10.353Z,1.60
2019-03-25T22:15:38.821Z,1.13
2019-03-25T22:18:07.262Z,1.10
2019-03-25T22:20:36.118Z,1.00
2019-03-25T22:23:04.884Z,1.20
2019-03-25T22:25:33.334Z,1.30
2019-03-25T22:28:01.801Z,1.50
2019-03-25T22:30:30.207Z,1.63
2019-03-25T22:32:59.011Z,1.40
2019-03-25T22:35:27.791Z,1.00
2019-03-25T22:37:56.590Z,1.30
2019-03-25T22:40:25.489Z,1.07
2019-03-25T22:42:53.976Z,1.47
2019-03-25T22:45:28.037Z,1.23
2019-03-25T22:47:56.601Z,1.40
2019-03-25T22:50:29.665Z,1.60
2019-03-25T22:52:58.442Z,1.40
2019-03-25T22:55:27.018Z,1.07
2019-03-25T22:57:55.566Z,1.30
2019-03-25T23:00:29.200Z,1.53
2019-03-25T23:02:57.720Z,1.00
2019-03-25T23:05:26.238Z,1.30
2019-03-25T23:07:54.791Z,1.30
2019-03-25T23:10:23.234Z,1.27
2019-03-25T23:12:52.575Z,1.30
2019-03-25T23:15:21.331Z,1.40
2019-03-25T23:17:49.777Z,1.23
2019-03-25T23:20:18.198Z,1.30
2019-03-25T23:22:46.794Z,1.43
2019-03-25T23:25:15.314Z,1.30
2019-03-25T23:27:43.757Z,1.23
2019-03-25T23:30:12.666Z,1.53
2019-03-25T23:32:41.522Z,1.30
2019-03-25T23:35:10.329Z,1.20
2019-03-25T23:37:38.785Z,0.90
2019-03-25T23:40:07.589Z,1.70
2019-03-25T23:42:36.033Z,1.00
2019-03-25T23:45:06.414Z,1.17
2019-03-25T23:47:34.877Z,1.40
2019-03-25T23:50:04.762Z,1.30
2019-03-25T23:52:33.221Z,1.30
2019-03-25T23:55:01.700Z,1.20
2019-03-25T23:57:30.173Z,1.03
2019-03-25T23:59:58.987Z,1.10
